sensor_id;sensor_type;location;lat;lon;timestamp;P1;durP1;ratioP1;P2;durP2;ratioP2
6193;SDS011;3130;41.564;23.280;2023-04-24T00:01:40;10.67;;;8.83;;
6193;SDS011;3130;41.564;23.280;2023-04-24T00:04:09;8.43;;;7.47;;
6193;SDS011;3130;41.564;23.280;2023-04-24T00:06:41;9.40;;;8.10;;
6193;SDS011;3130;41.564;23.280;2023-04-24T00:09:08;8.37;;;7.57;;
6193;SDS011;3130;41.564;23.280;2023-04-24T00:11:36;9.77;;;7.53;;
6193;SDS011;3130;41.564;23.280;2023-04-24T00:14:03;9.63;;;8.13;;
6193;SDS011;3130;41.564;23.280;2023-04-24T00:16:30;13.53;;;8.53;;
6193;SDS011;3130;41.564;23.280;2023-04-24T00:18:57;11.40;;;8.00;;
6193;SDS011;3130;41.564;23.280;2023-04-24T00:21:27;9.87;;;8.13;;
6193;SDS011;3130;41.564;23.280;2023-04-24T00:23:55;9.77;;;8.77;;
6193;SDS011;3130;41.564;23.280;2023-04-24T00:26:22;7.70;;;6.97;;
6193;SDS011;3130;41.564;23.280;2023-04-24T00:28:49;8.27;;;6.90;;
6193;SDS011;3130;41.564;23.280;2023-04-24T00:31:16;12.33;;;8.00;;
6193;SDS011;3130;41.564;23.280;2023-04-24T00:33:44;9.57;;;7.67;;
6193;SDS011;3130;41.564;23.280;2023-04-24T00:36:11;8.40;;;7.60;;
6193;SDS011;3130;41.564;23.280;2023-04-24T00:38:40;8.53;;;7.53;;
6193;SDS011;3130;41.564;23.280;2023-04-24T00:41:07;9.40;;;7.60;;
6193;SDS011;3130;41.564;23.280;2023-04-24T00:43:34;9.37;;;8.37;;
6193;SDS011;3130;41.564;23.280;2023-04-24T00:46:01;9.80;;;8.20;;
6193;SDS011;3130;41.564;23.280;2023-04-24T00:48:28;13.57;;;9.33;;
6193;SDS011;3130;41.564;23.280;2023-04-24T00:50:55;9.67;;;7.73;;
6193;SDS011;3130;41.564;23.280;2023-04-24T00:53:23;9.70;;;7.80;;
6193;SDS011;3130;41.564;23.280;2023-04-24T00:55:52;11.53;;;7.63;;
6193;SDS011;3130;41.564;23.280;2023-04-24T00:58:19;9.47;;;8.47;;
6193;SDS011;3130;41.564;23.280;2023-04-24T01:00:46;9.23;;;7.83;;
6193;SDS011;3130;41.564;23.280;2023-04-24T01:03:15;9.13;;;8.23;;
6193;SDS011;3130;41.564;23.280;2023-04-24T01:05:44;12.13;;;8.73;;
6193;SDS011;3130;41.564;23.280;2023-04-24T01:08:11;9.87;;;8.20;;
6193;SDS011;3130;41.564;23.280;2023-04-24T01:10:38;11.37;;;9.43;;
6193;SDS011;3130;41.564;23.280;2023-04-24T01:13:08;8.50;;;7.63;;
6193;SDS011;3130;41.564;23.280;2023-04-24T01:15:35;8.70;;;7.80;;
6193;SDS011;3130;41.564;23.280;2023-04-24T01:18:03;9.13;;;8.23;;
6193;SDS011;3130;41.564;23.280;2023-04-24T01:20:30;13.20;;;8.00;;
6193;SDS011;3130;41.564;23.280;2023-04-24T01:23:00;8.73;;;7.83;;
6193;SDS011;3130;41.564;23.280;2023-04-24T01:25:28;9.10;;;8.20;;
6193;SDS011;3130;41.564;23.280;2023-04-24T01:27:55;9.67;;;8.57;;
6193;SDS011;3130;41.564;23.280;2023-04-24T01:30:22;13.20;;;7.70;;
6193;SDS011;3130;41.564;23.280;2023-04-24T01:32:49;12.37;;;7.13;;
6193;SDS011;3130;41.564;23.280;2023-04-24T01:35:17;9.30;;;8.40;;
6193;SDS011;3130;41.564;23.280;2023-04-24T01:37:45;8.87;;;7.97;;
6193;SDS011;3130;41.564;23.280;2023-04-24T01:40:14;9.00;;;8.20;;
6193;SDS011;3130;41.564;23.280;2023-04-24T01:42:41;9.70;;;7.77;;
6193;SDS011;3130;41.564;23.280;2023-04-24T01:45:10;9.70;;;7.10;;
6193;SDS011;3130;41.564;23.280;2023-04-24T01:47:38;8.90;;;7.97;;
6193;SDS011;3130;41.564;23.280;2023-04-24T01:50:06;8.60;;;7.47;;
6193;SDS011;3130;41.564;23.280;2023-04-24T01:52:33;8.63;;;7.67;;
6193;SDS011;3130;41.564;23.280;2023-04-24T01:55:01;9.40;;;8.00;;
6193;SDS011;3130;41.564;23.280;2023-04-24T01:57:30;9.20;;;7.60;;
6193;SDS011;3130;41.564;23.280;2023-04-24T01:59:58;8.97;;;8.07;;
6193;SDS011;3130;41.564;23.280;2023-04-24T02:02:25;9.93;;;7.57;;
6193;SDS011;3130;41.564;23.280;2023-04-24T02:04:53;11.27;;;8.63;;
6193;SDS011;3130;41.564;23.280;2023-04-24T02:07:21;8.60;;;7.53;;
6193;SDS011;3130;41.564;23.280;2023-04-24T02:09:48;8.53;;;7.63;;
6193;SDS011;3130;41.564;23.280;2023-04-24T02:12:15;8.80;;;7.90;;
6193;SDS011;3130;41.564;23.280;2023-04-24T02:14:45;8.57;;;7.67;;
6193;SDS011;3130;41.564;23.280;2023-04-24T02:17:12;8.53;;;7.40;;
6193;SDS011;3130;41.564;23.280;2023-04-24T02:19:40;8.97;;;7.67;;
6193;SDS011;3130;41.564;23.280;2023-04-24T02:22:07;8.87;;;7.90;;
6193;SDS011;3130;41.564;23.280;2023-04-24T02:24:35;8.57;;;7.77;;
6193;SDS011;3130;41.564;23.280;2023-04-24T02:27:02;8.60;;;6.83;;
6193;SDS011;3130;41.564;23.280;2023-04-24T02:29:30;7.80;;;7.10;;
6193;SDS011;3130;41.564;23.280;2023-04-24T02:31:58;8.67;;;7.63;;
6193;SDS011;3130;41.564;23.280;2023-04-24T02:34:25;8.67;;;7.63;;
6193;SDS011;3130;41.564;23.280;2023-04-24T02:36:52;9.50;;;7.83;;
6193;SDS011;3130;41.564;23.280;2023-04-24T02:39:20;8.97;;;8.07;;
6193;SDS011;3130;41.564;23.280;2023-04-24T02:41:47;9.07;;;7.70;;
6193;SDS011;3130;41.564;23.280;2023-04-24T02:44:14;8.77;;;7.40;;
6193;SDS011;3130;41.564;23.280;2023-04-24T02:46:42;10.07;;;7.60;;
6193;SDS011;3130;41.564;23.280;2023-04-24T02:49:11;10.37;;;6.77;;
6193;SDS011;3130;41.564;23.280;2023-04-24T02:51:38;9.17;;;8.20;;
6193;SDS011;3130;41.564;23.280;2023-04-24T02:54:06;9.90;;;7.53;;
6193;SDS011;3130;41.564;23.280;2023-04-24T02:56:34;7.70;;;6.90;;
6193;SDS011;3130;41.564;23.280;2023-04-24T02:59:01;9.63;;;8.30;;
6193;SDS011;3130;41.564;23.280;2023-04-24T03:01:29;11.13;;;8.17;;
6193;SDS011;3130;41.564;23.280;2023-04-24T03:03:56;8.53;;;7.67;;
6193;SDS011;3130;41.564;23.280;2023-04-24T03:06:24;8.87;;;7.53;;
6193;SDS011;3130;41.564;23.280;2023-04-24T03:08:52;10.07;;;7.77;;
6193;SDS011;3130;41.564;23.280;2023-04-24T03:11:19;8.87;;;7.97;;
6193;SDS011;3130;41.564;23.280;2023-04-24T03:13:46;10.53;;;7.57;;
6193;SDS011;3130;41.564;23.280;2023-04-24T03:16:13;10.97;;;7.97;;
6193;SDS011;3130;41.564;23.280;2023-04-24T03:18:40;9.47;;;7.83;;
6193;SDS011;3130;41.564;23.280;2023-04-24T03:21:07;8.67;;;7.77;;
6193;SDS011;3130;41.564;23.280;2023-04-24T03:23:36;11.93;;;9.17;;
6193;SDS011;3130;41.564;23.280;2023-04-24T03:26:03;10.33;;;8.17;;
6193;SDS011;3130;41.564;23.280;2023-04-24T03:28:30;9.33;;;7.63;;
6193;SDS011;3130;41.564;23.280;2023-04-24T03:30:57;9.57;;;8.37;;
6193;SDS011;3130;41.564;23.280;2023-04-24T03:33:25;10.70;;;9.60;;
6193;SDS011;3130;41.564;23.280;2023-04-24T03:35:52;11.73;;;9.77;;
6193;SDS011;3130;41.564;23.280;2023-04-24T03:38:19;10.10;;;8.87;;
6193;SDS011;3130;41.564;23.280;2023-04-24T03:40:47;9.43;;;8.53;;
6193;SDS011;3130;41.564;23.280;2023-04-24T03:43:14;9.33;;;8.43;;
6193;SDS011;3130;41.564;23.280;2023-04-24T03:45:41;9.63;;;7.67;;
6193;SDS011;3130;41.564;23.280;2023-04-24T03:48:08;10.77;;;7.70;;
6193;SDS011;3130;41.564;23.280;2023-04-24T03:50:35;9.30;;;8.30;;
6193;SDS011;3130;41.564;23.280;2023-04-24T03:53:02;11.17;;;8.37;;
6193;SDS011;3130;41.564;23.280;2023-04-24T03:55:29;9.20;;;7.73;;
6193;SDS011;3130;41.564;23.280;2023-04-24T03:57:58;7.97;;;7.00;;
6193;SDS011;3130;41.564;23.280;2023-04-24T04:00:25;13.30;;;8.90;;
6193;SDS011;3130;41.564;23.280;2023-04-24T04:02:52;8.90;;;7.70;;
6193;SDS011;3130;41.564;23.280;2023-04-24T04:05:20;11.57;;;8.93;;
6193;SDS011;3130;41.564;23.280;2023-04-24T04:07:47;11.03;;;8.13;;
6193;SDS011;3130;41.564;23.280;2023-04-24T04:10:14;11.57;;;8.90;;
6193;SDS011;3130;41.564;23.280;2023-04-24T04:12:42;9.10;;;8.07;;
6193;SDS011;3130;41.564;23.280;2023-04-24T04:15:10;14.67;;;9.57;;
6193;SDS011;3130;41.564;23.280;2023-04-24T04:17:38;12.03;;;9.63;;
6193;SDS011;3130;41.564;23.280;2023-04-24T04:20:05;11.27;;;9.67;;
6193;SDS011;3130;41.564;23.280;2023-04-24T04:22:35;15.33;;;9.17;;
6193;SDS011;3130;41.564;23.280;2023-04-24T04:25:02;14.10;;;8.87;;
6193;SDS011;3130;41.564;23.280;2023-04-24T04:27:29;9.53;;;8.57;;
6193;SDS011;3130;41.564;23.280;2023-04-24T04:29:57;11.17;;;8.40;;
6193;SDS011;3130;41.564;23.280;2023-04-24T04:32:28;13.33;;;9.83;;
6193;SDS011;3130;41.564;23.280;2023-04-24T04:34:55;14.40;;;9.53;;
6193;SDS011;3130;41.564;23.280;2023-04-24T04:37:22;18.17;;;11.57;;
6193;SDS011;3130;41.564;23.280;2023-04-24T04:39:50;18.67;;;14.23;;
6193;SDS011;3130;41.564;23.280;2023-04-24T04:42:18;17.23;;;14.10;;
6193;SDS011;3130;41.564;23.280;2023-04-24T04:44:45;17.30;;;13.47;;
6193;SDS011;3130;41.564;23.280;2023-04-24T04:47:12;17.40;;;12.67;;
6193;SDS011;3130;41.564;23.280;2023-04-24T04:49:41;13.50;;;11.80;;
6193;SDS011;3130;41.564;23.280;2023-04-24T04:52:08;15.97;;;13.73;;
6193;SDS011;3130;41.564;23.280;2023-04-24T04:54:35;18.57;;;14.10;;
6193;SDS011;3130;41.564;23.280;2023-04-24T04:57:02;19.00;;;16.03;;
6193;SDS011;3130;41.564;23.280;2023-04-24T04:59:29;16.53;;;14.27;;
6193;SDS011;3130;41.564;23.280;2023-04-24T05:01:56;17.33;;;15.10;;
6193;SDS011;3130;41.564;23.280;2023-04-24T05:04:23;16.93;;;12.27;;
6193;SDS011;3130;41.564;23.280;2023-04-24T05:06:52;18.20;;;12.50;;
6193;SDS011;3130;41.564;23.280;2023-04-24T05:09:19;16.30;;;14.60;;
6193;SDS011;3130;41.564;23.280;2023-04-24T05:11:46;17.93;;;13.13;;
6193;SDS011;3130;41.564;23.280;2023-04-24T05:14:13;16.57;;;13.70;;
6193;SDS011;3130;41.564;23.280;2023-04-24T05:16:43;15.97;;;12.90;;
6193;SDS011;3130;41.564;23.280;2023-04-24T05:19:10;17.10;;;13.87;;
6193;SDS011;3130;41.564;23.280;2023-04-24T05:21:39;15.43;;;13.67;;
6193;SDS011;3130;41.564;23.280;2023-04-24T05:24:07;14.97;;;13.43;;
6193;SDS011;3130;41.564;23.280;2023-04-24T05:26:34;16.03;;;13.20;;
6193;SDS011;3130;41.564;23.280;2023-04-24T05:29:01;15.13;;;12.70;;
6193;SDS011;3130;41.564;23.280;2023-04-24T05:31:29;14.83;;;13.20;;
6193;SDS011;3130;41.564;23.280;2023-04-24T05:33:56;20.30;;;15.60;;
6193;SDS011;3130;41.564;23.280;2023-04-24T05:36:23;15.07;;;13.50;;
6193;SDS011;3130;41.564;23.280;2023-04-24T05:38:50;17.83;;;15.73;;
6193;SDS011;3130;41.564;23.280;2023-04-24T05:41:18;18.67;;;16.13;;
6193;SDS011;3130;41.564;23.280;2023-04-24T05:43:46;18.60;;;15.50;;
6193;SDS011;3130;41.564;23.280;2023-04-24T05:46:13;18.93;;;15.63;;
6193;SDS011;3130;41.564;23.280;2023-04-24T05:48:40;18.43;;;15.07;;
6193;SDS011;3130;41.564;23.280;2023-04-24T05:51:07;16.57;;;14.07;;
6193;SDS011;3130;41.564;23.280;2023-04-24T05:53:35;19.67;;;15.67;;
6193;SDS011;3130;41.564;23.280;2023-04-24T05:56:02;26.70;;;15.57;;
6193;SDS011;3130;41.564;23.280;2023-04-24T05:58:30;17.20;;;15.10;;
6193;SDS011;3130;41.564;23.280;2023-04-24T06:00:57;23.47;;;16.93;;
6193;SDS011;3130;41.564;23.280;2023-04-24T06:03:26;22.00;;;16.33;;
6193;SDS011;3130;41.564;23.280;2023-04-24T06:05:54;17.73;;;15.87;;
6193;SDS011;3130;41.564;23.280;2023-04-24T06:08:21;18.47;;;15.77;;
6193;SDS011;3130;41.564;23.280;2023-04-24T06:10:48;16.50;;;13.83;;
6193;SDS011;3130;41.564;23.280;2023-04-24T06:13:15;16.63;;;12.63;;
6193;SDS011;3130;41.564;23.280;2023-04-24T06:15:43;17.30;;;13.07;;
6193;SDS011;3130;41.564;23.280;2023-04-24T06:18:10;13.83;;;11.73;;
6193;SDS011;3130;41.564;23.280;2023-04-24T06:20:38;22.77;;;15.33;;
6193;SDS011;3130;41.564;23.280;2023-04-24T06:23:05;18.20;;;14.37;;
6193;SDS011;3130;41.564;23.280;2023-04-24T06:25:32;15.30;;;11.07;;
6193;SDS011;3130;41.564;23.280;2023-04-24T06:27:59;13.97;;;12.57;;
6193;SDS011;3130;41.564;23.280;2023-04-24T06:30:26;14.90;;;12.17;;
6193;SDS011;3130;41.564;23.280;2023-04-24T06:32:55;14.17;;;11.73;;
6193;SDS011;3130;41.564;23.280;2023-04-24T06:35:23;13.60;;;12.00;;
6193;SDS011;3130;41.564;23.280;2023-04-24T06:37:50;14.40;;;10.73;;
6193;SDS011;3130;41.564;23.280;2023-04-24T06:40:17;12.33;;;8.83;;
6193;SDS011;3130;41.564;23.280;2023-04-24T06:42:44;10.47;;;8.07;;
6193;SDS011;3130;41.564;23.280;2023-04-24T06:45:11;11.67;;;9.53;;
6193;SDS011;3130;41.564;23.280;2023-04-24T06:47:38;12.90;;;9.27;;
6193;SDS011;3130;41.564;23.280;2023-04-24T06:50:07;10.70;;;7.00;;
6193;SDS011;3130;41.564;23.280;2023-04-24T06:52:35;10.23;;;5.72;;
6193;SDS011;3130;41.564;23.280;2023-04-24T06:55:02;11.23;;;6.75;;
6193;SDS011;3130;41.564;23.280;2023-04-24T06:57:31;6.97;;;5.30;;
6193;SDS011;3130;41.564;23.280;2023-04-24T06:59:58;9.40;;;5.85;;
6193;SDS011;3130;41.564;23.280;2023-04-24T07:02:26;8.50;;;6.15;;
6193;SDS011;3130;41.564;23.280;2023-04-24T07:04:52;11.77;;;5.65;;
6193;SDS011;3130;41.564;23.280;2023-04-24T07:07:21;6.45;;;5.28;;
6193;SDS011;3130;41.564;23.280;2023-04-24T07:09:48;7.13;;;5.35;;
6193;SDS011;3130;41.564;23.280;2023-04-24T07:12:15;8.30;;;5.13;;
6193;SDS011;3130;41.564;23.280;2023-04-24T07:14:45;8.82;;;5.53;;
6193;SDS011;3130;41.564;23.280;2023-04-24T07:17:12;7.53;;;5.25;;
6193;SDS011;3130;41.564;23.280;2023-04-24T07:19:39;5.70;;;5.10;;
6193;SDS011;3130;41.564;23.280;2023-04-24T07:22:07;8.35;;;5.07;;
6193;SDS011;3130;41.564;23.280;2023-04-24T07:24:35;5.20;;;4.38;;
6193;SDS011;3130;41.564;23.280;2023-04-24T07:27:02;6.78;;;4.78;;
6193;SDS011;3130;41.564;23.280;2023-04-24T07:29:30;8.32;;;4.78;;
6193;SDS011;3130;41.564;23.280;2023-04-24T07:31:57;5.75;;;5.00;;
6193;SDS011;3130;41.564;23.280;2023-04-24T07:34:25;6.70;;;5.25;;
6193;SDS011;3130;41.564;23.280;2023-04-24T07:36:52;6.88;;;4.88;;
6193;SDS011;3130;41.564;23.280;2023-04-24T07:39:19;7.10;;;4.43;;
6193;SDS011;3130;41.564;23.280;2023-04-24T07:41:47;7.07;;;5.80;;
6193;SDS011;3130;41.564;23.280;2023-04-24T07:44:14;7.68;;;5.88;;
6193;SDS011;3130;41.564;23.280;2023-04-24T07:46:41;7.85;;;5.47;;
6193;SDS011;3130;41.564;23.280;2023-04-24T07:49:08;6.45;;;5.53;;
6193;SDS011;3130;41.564;23.280;2023-04-24T07:51:36;8.38;;;5.35;;
6193;SDS011;3130;41.564;23.280;2023-04-24T07:54:04;6.63;;;5.07;;
6193;SDS011;3130;41.564;23.280;2023-04-24T07:56:32;5.97;;;5.38;;
6193;SDS011;3130;41.564;23.280;2023-04-24T07:59:01;8.93;;;6.35;;
6193;SDS011;3130;41.564;23.280;2023-04-24T08:01:28;7.18;;;5.80;;
6193;SDS011;3130;41.564;23.280;2023-04-24T08:03:55;8.75;;;6.57;;
6193;SDS011;3130;41.564;23.280;2023-04-24T08:06:22;6.72;;;5.63;;
6193;SDS011;3130;41.564;23.280;2023-04-24T08:08:53;8.15;;;6.05;;
6193;SDS011;3130;41.564;23.280;2023-04-24T08:11:20;8.88;;;6.35;;
6193;SDS011;3130;41.564;23.280;2023-04-24T08:13:47;6.78;;;6.07;;
6193;SDS011;3130;41.564;23.280;2023-04-24T08:16:15;8.50;;;6.75;;
6193;SDS011;3130;41.564;23.280;2023-04-24T08:18:42;10.33;;;7.17;;
6193;SDS011;3130;41.564;23.280;2023-04-24T08:21:09;7.30;;;6.43;;
6193;SDS011;3130;41.564;23.280;2023-04-24T08:23:38;9.17;;;7.53;;
6193;SDS011;3130;41.564;23.280;2023-04-24T08:26:05;8.03;;;7.23;;
6193;SDS011;3130;41.564;23.280;2023-04-24T08:28:32;8.27;;;6.43;;
6193;SDS011;3130;41.564;23.280;2023-04-24T08:30:59;9.27;;;6.83;;
6193;SDS011;3130;41.564;23.280;2023-04-24T08:33:28;9.53;;;6.30;;
6193;SDS011;3130;41.564;23.280;2023-04-24T08:35:59;7.17;;;6.30;;
6193;SDS011;3130;41.564;23.280;2023-04-24T08:38:26;7.33;;;6.63;;
6193;SDS011;3130;41.564;23.280;2023-04-24T08:40:53;7.67;;;6.20;;
6193;SDS011;3130;41.564;23.280;2023-04-24T08:43:22;7.97;;;7.17;;
6193;SDS011;3130;41.564;23.280;2023-04-24T08:45:50;8.30;;;7.20;;
6193;SDS011;3130;41.564;23.280;2023-04-24T08:48:17;7.80;;;6.50;;
6193;SDS011;3130;41.564;23.280;2023-04-24T08:50:46;7.20;;;6.50;;
6193;SDS011;3130;41.564;23.280;2023-04-24T08:53:14;8.83;;;7.00;;
6193;SDS011;3130;41.564;23.280;2023-04-24T08:55:42;7.43;;;5.97;;
6193;SDS011;3130;41.564;23.280;2023-04-24T08:58:12;8.20;;;6.50;;
6193;SDS011;3130;41.564;23.280;2023-04-24T09:00:40;7.00;;;6.33;;
6193;SDS011;3130;41.564;23.280;2023-04-24T09:03:11;7.07;;;5.70;;
6193;SDS011;3130;41.564;23.280;2023-04-24T09:05:39;7.07;;;6.37;;
6193;SDS011;3130;41.564;23.280;2023-04-24T09:08:12;6.93;;;6.30;;
6193;SDS011;3130;41.564;23.280;2023-04-24T09:10:40;9.87;;;6.93;;
6193;SDS011;3130;41.564;23.280;2023-04-24T09:13:08;7.40;;;6.60;;
6193;SDS011;3130;41.564;23.280;2023-04-24T09:15:35;7.43;;;6.73;;
6193;SDS011;3130;41.564;23.280;2023-04-24T09:18:04;7.93;;;7.10;;
6193;SDS011;3130;41.564;23.280;2023-04-24T09:20:31;7.63;;;6.77;;
6193;SDS011;3130;41.564;23.280;2023-04-24T09:23:01;10.17;;;6.40;;
6193;SDS011;3130;41.564;23.280;2023-04-24T09:25:32;7.47;;;6.77;;
6193;SDS011;3130;41.564;23.280;2023-04-24T09:28:01;8.10;;;7.17;;
6193;SDS011;3130;41.564;23.280;2023-04-24T09:30:29;10.07;;;7.10;;
6193;SDS011;3130;41.564;23.280;2023-04-24T09:33:12;6.73;;;5.70;;
6193;SDS011;3130;41.564;23.280;2023-04-24T09:35:41;7.30;;;6.60;;
6193;SDS011;3130;41.564;23.280;2023-04-24T09:38:09;6.37;;;5.77;;
6193;SDS011;3130;41.564;23.280;2023-04-24T09:40:37;7.73;;;5.60;;
6193;SDS011;3130;41.564;23.280;2023-04-24T09:43:09;6.63;;;5.97;;
6193;SDS011;3130;41.564;23.280;2023-04-24T09:45:37;7.20;;;6.57;;
6193;SDS011;3130;41.564;23.280;2023-04-24T09:48:07;7.97;;;5.73;;
6193;SDS011;3130;41.564;23.280;2023-04-24T09:50:36;8.03;;;6.57;;
6193;SDS011;3130;41.564;23.280;2023-04-24T09:53:04;7.17;;;6.47;;
6193;SDS011;3130;41.564;23.280;2023-04-24T09:55:33;7.73;;;6.43;;
6193;SDS011;3130;41.564;23.280;2023-04-24T09:58:11;9.13;;;6.33;;
6193;SDS011;3130;41.564;23.280;2023-04-24T10:00:38;7.03;;;6.33;;
6193;SDS011;3130;41.564;23.280;2023-04-24T10:03:05;6.77;;;6.10;;
6193;SDS011;3130;41.564;23.280;2023-04-24T10:05:34;7.37;;;6.57;;
6193;SDS011;3130;41.564;23.280;2023-04-24T10:08:03;7.03;;;6.33;;
6193;SDS011;3130;41.564;23.280;2023-04-24T10:10:32;8.83;;;6.30;;
6193;SDS011;3130;41.564;23.280;2023-04-24T10:13:02;8.50;;;5.97;;
6193;SDS011;3130;41.564;23.280;2023-04-24T10:15:30;7.53;;;6.73;;
6193;SDS011;3130;41.564;23.280;2023-04-24T10:17:59;6.83;;;6.23;;
6193;SDS011;3130;41.564;23.280;2023-04-24T10:20:27;8.70;;;6.30;;
6193;SDS011;3130;41.564;23.280;2023-04-24T10:22:56;7.43;;;6.13;;
6193;SDS011;3130;41.564;23.280;2023-04-24T10:25:25;6.73;;;5.90;;
6193;SDS011;3130;41.564;23.280;2023-04-24T10:27:52;8.00;;;6.97;;
6193;SDS011;3130;41.564;23.280;2023-04-24T10:30:24;7.77;;;6.97;;
6193;SDS011;3130;41.564;23.280;2023-04-24T10:32:51;10.10;;;7.67;;
6193;SDS011;3130;41.564;23.280;2023-04-24T10:35:19;8.97;;;6.13;;
6193;SDS011;3130;41.564;23.280;2023-04-24T10:37:48;7.70;;;6.90;;
6193;SDS011;3130;41.564;23.280;2023-04-24T10:40:17;7.93;;;6.67;;
6193;SDS011;3130;41.564;23.280;2023-04-24T10:42:47;7.93;;;6.83;;
6193;SDS011;3130;41.564;23.280;2023-04-24T10:45:17;7.77;;;6.60;;
6193;SDS011;3130;41.564;23.280;2023-04-24T10:47:54;7.30;;;6.53;;
6193;SDS011;3130;41.564;23.280;2023-04-24T10:50:24;8.87;;;6.93;;
6193;SDS011;3130;41.564;23.280;2023-04-24T10:52:52;6.93;;;6.20;;
6193;SDS011;3130;41.564;23.280;2023-04-24T10:58:11;8.53;;;7.73;;
6193;SDS011;3130;41.564;23.280;2023-04-24T11:00:40;8.20;;;6.37;;
6193;SDS011;3130;41.564;23.280;2023-04-24T11:03:22;7.23;;;6.53;;
6193;SDS011;3130;41.564;23.280;2023-04-24T11:05:52;9.77;;;6.53;;
6193;SDS011;3130;41.564;23.280;2023-04-24T11:08:23;7.70;;;7.00;;
6193;SDS011;3130;41.564;23.280;2023-04-24T11:10:56;8.17;;;6.80;;
6193;SDS011;3130;41.564;23.280;2023-04-24T11:13:25;8.37;;;7.00;;
6193;SDS011;3130;41.564;23.280;2023-04-24T11:16:13;6.63;;;6.03;;
6193;SDS011;3130;41.564;23.280;2023-04-24T11:18:51;9.00;;;7.20;;
6193;SDS011;3130;41.564;23.280;2023-04-24T11:21:19;7.47;;;6.40;;
6193;SDS011;3130;41.564;23.280;2023-04-24T11:23:48;8.07;;;6.83;;
6193;SDS011;3130;41.564;23.280;2023-04-24T11:26:17;7.13;;;6.43;;
6193;SDS011;3130;41.564;23.280;2023-04-24T11:28:48;9.83;;;6.97;;
6193;SDS011;3130;41.564;23.280;2023-04-24T11:31:35;10.13;;;7.13;;
6193;SDS011;3130;41.564;23.280;2023-04-24T11:34:11;6.53;;;5.83;;
6193;SDS011;3130;41.564;23.280;2023-04-24T11:36:39;7.27;;;6.57;;
6193;SDS011;3130;41.564;23.280;2023-04-24T11:39:06;7.90;;;7.07;;
6193;SDS011;3130;41.564;23.280;2023-04-24T11:41:33;7.47;;;6.77;;
6193;SDS011;3130;41.564;23.280;2023-04-24T11:44:01;7.90;;;6.10;;
6193;SDS011;3130;41.564;23.280;2023-04-24T11:46:29;8.43;;;6.53;;
6193;SDS011;3130;41.564;23.280;2023-04-24T11:48:57;7.67;;;6.97;;
6193;SDS011;3130;41.564;23.280;2023-04-24T11:51:27;9.30;;;6.43;;
6193;SDS011;3130;41.564;23.280;2023-04-24T11:53:55;7.17;;;6.40;;
6193;SDS011;3130;41.564;23.280;2023-04-24T11:56:22;9.47;;;6.70;;
6193;SDS011;3130;41.564;23.280;2023-04-24T11:58:51;6.97;;;6.20;;
6193;SDS011;3130;41.564;23.280;2023-04-24T12:01:19;8.10;;;6.73;;
6193;SDS011;3130;41.564;23.280;2023-04-24T12:03:49;7.13;;;6.43;;
6193;SDS011;3130;41.564;23.280;2023-04-24T12:06:18;7.47;;;6.53;;
6193;SDS011;3130;41.564;23.280;2023-04-24T12:08:47;7.00;;;6.30;;
6193;SDS011;3130;41.564;23.280;2023-04-24T12:11:15;7.70;;;6.90;;
6193;SDS011;3130;41.564;23.280;2023-04-24T12:13:44;7.17;;;6.47;;
6193;SDS011;3130;41.564;23.280;2023-04-24T12:16:11;6.77;;;6.13;;
6193;SDS011;3130;41.564;23.280;2023-04-24T12:18:43;6.93;;;6.30;;
6193;SDS011;3130;41.564;23.280;2023-04-24T12:21:14;8.90;;;6.27;;
6193;SDS011;3130;41.564;23.280;2023-04-24T12:23:42;7.40;;;6.70;;
6193;SDS011;3130;41.564;23.280;2023-04-24T12:26:11;7.47;;;6.57;;
6193;SDS011;3130;41.564;23.280;2023-04-24T12:28:38;8.33;;;6.10;;
6193;SDS011;3130;41.564;23.280;2023-04-24T12:31:06;6.30;;;5.70;;
6193;SDS011;3130;41.564;23.280;2023-04-24T12:33:34;8.33;;;6.50;;
6193;SDS011;3130;41.564;23.280;2023-04-24T12:36:02;8.43;;;6.40;;
6193;SDS011;3130;41.564;23.280;2023-04-24T12:38:30;6.63;;;5.90;;
6193;SDS011;3130;41.564;23.280;2023-04-24T12:41:05;9.20;;;6.73;;
6193;SDS011;3130;41.564;23.280;2023-04-24T12:43:35;6.07;;;5.47;;
6193;SDS011;3130;41.564;23.280;2023-04-24T12:46:03;12.30;;;6.40;;
6193;SDS011;3130;41.564;23.280;2023-04-24T12:48:30;7.80;;;6.93;;
6193;SDS011;3130;41.564;23.280;2023-04-24T12:50:57;8.27;;;6.70;;
6193;SDS011;3130;41.564;23.280;2023-04-24T12:53:26;7.63;;;6.43;;
6193;SDS011;3130;41.564;23.280;2023-04-24T12:55:56;6.00;;;5.40;;
6193;SDS011;3130;41.564;23.280;2023-04-24T12:58:23;6.40;;;5.80;;
6193;SDS011;3130;41.564;23.280;2023-04-24T13:00:52;6.83;;;6.13;;
6193;SDS011;3130;41.564;23.280;2023-04-24T13:03:19;7.90;;;6.43;;
6193;SDS011;3130;41.564;23.280;2023-04-24T13:05:47;8.83;;;7.07;;
6193;SDS011;3130;41.564;23.280;2023-04-24T13:08:14;9.73;;;7.73;;
6193;SDS011;3130;41.564;23.280;2023-04-24T13:10:41;7.90;;;7.10;;
6193;SDS011;3130;41.564;23.280;2023-04-24T13:13:08;7.07;;;6.37;;
6193;SDS011;3130;41.564;23.280;2023-04-24T13:15:35;7.83;;;7.13;;
6193;SDS011;3130;41.564;23.280;2023-04-24T13:18:04;7.63;;;6.73;;
6193;SDS011;3130;41.564;23.280;2023-04-24T13:20:31;8.47;;;6.87;;
6193;SDS011;3130;41.564;23.280;2023-04-24T13:23:00;8.03;;;7.27;;
6193;SDS011;3130;41.564;23.280;2023-04-24T13:25:27;8.43;;;6.63;;
6193;SDS011;3130;41.564;23.280;2023-04-24T13:27:54;7.23;;;6.53;;
6193;SDS011;3130;41.564;23.280;2023-04-24T13:30:22;7.30;;;6.60;;
6193;SDS011;3130;41.564;23.280;2023-04-24T13:32:49;7.47;;;6.67;;
6193;SDS011;3130;41.564;23.280;2023-04-24T13:35:17;7.33;;;6.63;;
6193;SDS011;3130;41.564;23.280;2023-04-24T13:37:45;7.67;;;6.83;;
6193;SDS011;3130;41.564;23.280;2023-04-24T13:40:12;7.73;;;7.03;;
6193;SDS011;3130;41.564;23.280;2023-04-24T13:42:39;9.97;;;7.77;;
6193;SDS011;3130;41.564;23.280;2023-04-24T13:45:07;8.47;;;7.40;;
6193;SDS011;3130;41.564;23.280;2023-04-24T13:47:34;8.27;;;7.47;;
6193;SDS011;3130;41.564;23.280;2023-04-24T13:50:01;8.70;;;7.80;;
6193;SDS011;3130;41.564;23.280;2023-04-24T13:52:30;7.33;;;6.50;;
6193;SDS011;3130;41.564;23.280;2023-04-24T13:54:57;8.60;;;7.43;;
6193;SDS011;3130;41.564;23.280;2023-04-24T13:57:24;9.17;;;7.80;;
6193;SDS011;3130;41.564;23.280;2023-04-24T13:59:51;8.30;;;6.50;;
6193;SDS011;3130;41.564;23.280;2023-04-24T14:02:18;8.50;;;7.47;;
6193;SDS011;3130;41.564;23.280;2023-04-24T14:04:45;8.80;;;7.17;;
6193;SDS011;3130;41.564;23.280;2023-04-24T14:07:13;8.77;;;7.67;;
6193;SDS011;3130;41.564;23.280;2023-04-24T14:09:42;8.43;;;7.27;;
6193;SDS011;3130;41.564;23.280;2023-04-24T14:12:09;9.63;;;8.63;;
6193;SDS011;3130;41.564;23.280;2023-04-24T14:14:36;8.93;;;7.83;;
6193;SDS011;3130;41.564;23.280;2023-04-24T14:17:03;9.43;;;7.77;;
6193;SDS011;3130;41.564;23.280;2023-04-24T14:19:30;12.13;;;7.87;;
6193;SDS011;3130;41.564;23.280;2023-04-24T14:21:57;9.00;;;7.37;;
6193;SDS011;3130;41.564;23.280;2023-04-24T14:24:24;12.23;;;7.77;;
6193;SDS011;3130;41.564;23.280;2023-04-24T14:26:53;8.93;;;8.03;;
6193;SDS011;3130;41.564;23.280;2023-04-24T14:29:21;9.83;;;8.60;;
6193;SDS011;3130;41.564;23.280;2023-04-24T14:31:49;11.40;;;8.00;;
6193;SDS011;3130;41.564;23.280;2023-04-24T14:34:16;9.10;;;7.60;;
6193;SDS011;3130;41.564;23.280;2023-04-24T14:36:43;8.77;;;7.87;;
6193;SDS011;3130;41.564;23.280;2023-04-24T14:39:10;8.77;;;7.77;;
6193;SDS011;3130;41.564;23.280;2023-04-24T14:41:37;7.87;;;7.03;;
6193;SDS011;3130;41.564;23.280;2023-04-24T14:44:06;12.50;;;7.97;;
6193;SDS011;3130;41.564;23.280;2023-04-24T14:46:33;8.10;;;7.27;;
6193;SDS011;3130;41.564;23.280;2023-04-24T14:49:00;10.00;;;8.03;;
6193;SDS011;3130;41.564;23.280;2023-04-24T14:51:27;9.20;;;8.27;;
6193;SDS011;3130;41.564;23.280;2023-04-24T14:53:55;8.70;;;7.90;;
6193;SDS011;3130;41.564;23.280;2023-04-24T14:56:23;9.90;;;8.90;;
6193;SDS011;3130;41.564;23.280;2023-04-24T14:58:50;8.63;;;7.83;;
6193;SDS011;3130;41.564;23.280;2023-04-24T15:01:18;10.13;;;8.30;;
6193;SDS011;3130;41.564;23.280;2023-04-24T15:03:45;9.77;;;8.80;;